TimeHST,TemperatureF,Dew PointF,Humidity,Sea Level PressureIn,VisibilityMPH,Wind Direction,Wind SpeedMPH,Gust SpeedMPH,PrecipitationIn,Events,Conditions,WindDirDegrees,DateUTC
12:53 AM,72.0,64.9,78,30.05,10.0,South,5.8,-,N/A,,Mostly Cloudy,190,2013-04-23 10:53:00
1:53 AM,71.1,66.0,84,30.04,10.0,South,5.8,-,N/A,,Overcast,190,2013-04-23 11:53:00
2:53 AM,71.1,63.0,75,30.02,10.0,SSW,5.8,-,N/A,,Mostly Cloudy,200,2013-04-23 12:53:00
3:34 AM,71.1,62.1,73,30.01,10.0,South,3.5,-,N/A,,Mostly Cloudy,170,2013-04-23 13:34:00
3:53 AM,70.0,62.1,76,30.02,10.0,SSW,3.5,-,N/A,,Scattered Clouds,210,2013-04-23 13:53:00
4:53 AM,66.9,60.1,79,30.03,10.0,SSW,3.5,-,N/A,,Scattered Clouds,210,2013-04-23 14:53:00
5:53 AM,66.0,59.0,78,30.04,10.0,SSW,4.6,-,N/A,,Mostly Cloudy,210,2013-04-23 15:53:00
6:53 AM,69.1,59.0,70,30.06,10.0,SSW,5.8,-,N/A,,Mostly Cloudy,210,2013-04-23 16:53:00
7:53 AM,72.0,60.1,66,30.07,10.0,SSW,4.6,-,N/A,,Mostly Cloudy,210,2013-04-23 17:53:00
8:53 AM,78.1,64.0,62,30.07,10.0,Variable,5.8,-,N/A,,Scattered Clouds,0,2013-04-23 18:53:00
9:53 AM,81.0,66.0,60,30.07,10.0,ESE,9.2,-,0.00,,Scattered Clouds,110,2013-04-23 19:53:00
10:53 AM,82.0,66.0,58,30.05,10.0,East,13.8,-,N/A,,Clear,100,2013-04-23 20:53:00
11:53 AM,84.0,64.9,53,30.04,10.0,SE,13.8,-,N/A,,Scattered Clouds,130,2013-04-23 21:53:00
12:53 PM,82.9,64.0,53,30.03,10.0,East,15.0,-,N/A,,Scattered Clouds,100,2013-04-23 22:53:00
1:53 PM,81.0,64.0,56,30.01,10.0,ESE,12.7,-,N/A,,Overcast,110,2013-04-23 23:53:00
2:53 PM,77.0,66.0,69,30.01,10.0,East,10.4,-,N/A,,Overcast,100,2013-04-24 00:53:00
3:53 PM,78.1,64.9,64,30.00,10.0,ESE,10.4,-,N/A,,Overcast,120,2013-04-24 01:53:00
4:53 PM,77.0,64.0,64,30.01,10.0,SE,9.2,-,N/A,,Overcast,130,2013-04-24 02:53:00
5:53 PM,75.9,64.9,69,30.02,10.0,SE,8.1,-,N/A,,Overcast,130,2013-04-24 03:53:00
6:53 PM,75.0,64.9,71,30.04,10.0,SSE,3.5,-,N/A,,Scattered Clouds,160,2013-04-24 04:53:00
7:53 PM,72.0,66.0,81,30.06,10.0,South,3.5,-,N/A,,Clear,180,2013-04-24 05:53:00
8:53 PM,70.0,66.0,87,30.07,10.0,SSW,3.5,-,N/A,,Clear,210,2013-04-24 06:53:00
9:53 PM,71.1,66.0,84,30.09,10.0,SSW,3.5,-,N/A,,Partly Cloudy,200,2013-04-24 07:53:00
10:53 PM,69.1,64.9,87,30.09,10.0,SW,3.5,-,N/A,,Clear,220,2013-04-24 08:53:00
11:22 PM,69.1,64.9,87,30.08,10.0,SW,4.6,-,N/A,,Partly Cloudy,230,2013-04-24 09:22:00
11:53 PM,68.0,64.0,87,30.07,10.0,SW,4.6,-,N/A,,Clear,220,2013-04-24 09:53:00